Terminal Aerodrome Forecast
Issued by NWS North Platte, NE

Home | Current Version | Previous Version | Text Only | Print | Product List | Glossary On
Versions: 1 2 3 4 5 6 7 8 9 10 11 12 13 14 15 16 17 18 19 20 21
000
FTUS43 KLBF 300520
TAFVTN
TAF
KVTN 300520Z 3006/3106 06006KT P6SM SCT015 OVC023
      TEMPO 3006/3010 BKN015
     FM301000 03004KT 5SM BR OVC015
     FM301400 VRB03KT P6SM SCT015
     FM301900 10005KT P6SM FEW110=

USA.gov is the U.S. government's official web portal to all federal, state and local government web resources and services.